Time;durP1;ratioP1;P1;durP2;ratioP2;P2;SDS_P1;SDS_P2;PMS_P1;PMS_P2;Temp;Humidity;BMP_temperature;BMP_pressure;BME280_temperature;BME280_humidity;BME280_pressure;Samples;Min_cycle;Max_cycle;Signal;HPM_P1;HPM_P2
2023/01/13 00:01:13;;;;;;;30.50;13.40;;;;;;;-0.10;62.80;101353.69;108059;1256;76458;-75
2023/01/13 00:03:40;;;;;;;26.60;12.60;;;;;;;-0.21;63.10;101357.84;108016;1256;74278;-75
2023/01/13 00:06:08;;;;;;;27.60;12.90;;;;;;;-0.23;63.30;101356.99;108051;1255;74974;-74
2023/01/13 00:08:35;;;;;;;29.60;13.50;;;;;;;-0.22;63.32;101359.85;108118;1256;61299;-74
2023/01/13 00:11:03;;;;;;;23.50;12.60;;;;;;;-0.21;63.33;101357.60;108064;1256;60304;-75
2023/01/13 00:13:32;;;;;;;24.70;13.50;;;;;;;-0.21;63.40;101357.96;108050;1256;75199;-74
2023/01/13 00:16:07;;;;;;;38.40;15.40;;;;;;;-0.25;63.47;101356.31;108082;1256;74687;-75
2023/01/13 00:18:35;;;;;;;34.30;14.80;;;;;;;-0.30;63.46;101359.63;108047;1256;72378;-75
2023/01/13 00:21:08;;;;;;;33.00;15.50;;;;;;;-0.30;63.37;101357.16;108028;1256;61339;-75
2023/01/13 00:23:35;;;;;;;28.00;15.70;;;;;;;-0.28;63.46;101356.80;107859;1256;62644;-75
2023/01/13 00:26:07;;;;;;;30.00;14.60;;;;;;;-0.27;63.63;101354.16;108012;1260;76323;-75
2023/01/13 00:28:34;;;;;;;;;;;;;;;-0.23;63.65;101355.58;107860;1261;72724;-74
2023/01/13 00:31:05;;;;;;;29.30;14.00;;;;;;;-0.22;63.44;101354.44;108037;1256;74647;-74
2023/01/13 00:33:33;;;;;;;31.10;14.10;;;;;;;-0.20;63.49;101357.92;107801;1256;59693;-75
2023/01/13 00:36:01;;;;;;;26.10;14.90;;;;;;;-0.19;63.46;101355.33;108070;1256;60452;-74
2023/01/13 00:38:30;;;;;;;24.50;14.00;;;;;;;-0.19;63.51;101353.59;108130;1254;73801;-74
2023/01/13 00:40:58;;;;;;;28.10;14.50;;;;;;;-0.19;63.57;101348.46;108070;1255;72118;-74
2023/01/13 00:43:26;;;;;;;26.80;13.60;;;;;;;-0.21;63.34;101349.54;108092;1256;72758;-74
2023/01/13 00:45:53;;;;;;;30.30;13.90;;;;;;;-0.29;63.42;101349.72;108114;1256;61220;-74
2023/01/13 00:48:21;;;;;;;25.30;12.50;;;;;;;-0.31;63.41;101352.80;108069;1256;61330;-75
2023/01/13 00:50:58;;;;;;;23.40;11.70;;;;;;;-0.33;63.60;101358.91;108055;1256;75863;-74
2023/01/13 00:53:26;;;;;;;26.80;11.90;;;;;;;-0.34;63.71;101349.22;108080;1261;73575;-76
2023/01/13 00:56:08;;;;;;;23.90;12.30;;;;;;;-0.36;63.41;101353.59;108027;1256;72977;-75
2023/01/13 00:58:35;;;;;;;22.80;11.80;;;;;;;-0.42;63.60;101354.35;108060;1257;60397;-75
2023/01/13 01:01:04;;;;;;;23.60;12.60;;;;;;;-0.47;63.65;101352.06;108077;1256;60572;-75
2023/01/13 01:03:32;;;;;;;26.80;13.20;;;;;;;-0.50;63.49;101352.84;108010;1256;75936;-75
2023/01/13 01:06:04;;;;;;;27.40;13.50;;;;;;;-0.48;63.85;101349.98;107839;1256;75124;-75
2023/01/13 01:08:31;;;;;;;25.00;11.40;;;;;;;-0.49;63.90;101351.14;108073;1259;71745;-76
2023/01/13 01:11:12;;;;;;;22.60;11.70;;;;;;;-0.50;63.88;101348.67;107995;1256;60372;-74
2023/01/13 01:13:40;;;;;;;25.80;12.00;;;;;;;-0.54;63.94;101345.95;108035;1260;61378;-75
2023/01/13 01:16:09;;;;;;;17.80;10.90;;;;;;;-0.56;63.89;101342.36;107999;1256;74496;-75
2023/01/13 01:18:40;;;;;;;30.30;13.50;;;;;;;-0.63;64.16;101336.13;108016;1256;73191;-76
2023/01/13 01:21:07;;;;;;;26.80;13.80;;;;;;;-0.58;63.98;101335.06;107997;1256;72815;-75
2023/01/13 01:23:34;;;;;;;23.30;12.50;;;;;;;-0.55;63.93;101331.53;108021;1256;63345;-75
2023/01/13 01:26:12;;;;;;;30.30;13.80;;;;;;;-0.59;63.95;101327.98;107889;1256;60314;-74
2023/01/13 01:28:39;;;;;;;25.70;12.70;;;;;;;-0.62;64.12;101329.38;108073;1257;74117;-75
2023/01/13 01:31:08;;;;;;;25.00;12.70;;;;;;;-0.63;64.01;101327.48;108058;1256;75046;-75
2023/01/13 01:33:35;;;;;;;20.00;10.80;;;;;;;-0.65;64.24;101326.87;108075;1257;74113;-74
2023/01/13 01:36:03;;;;;;;24.30;12.10;;;;;;;-0.68;64.27;101331.92;108096;1259;59856;-75
2023/01/13 01:38:30;;;;;;;26.60;12.00;;;;;;;-0.72;64.34;101326.32;108045;1256;61179;-75
2023/01/13 01:40:57;;;;;;;23.60;10.90;;;;;;;-0.73;64.37;101320.17;107870;1261;75237;-75
2023/01/13 01:44:03;;;;;;;21.30;10.90;;;;;;;-0.73;64.59;101311.73;108016;1256;72479;-74
2023/01/13 01:46:39;;;;;;;24.40;12.20;;;;;;;-0.73;64.65;101304.42;107964;1256;73986;-76
2023/01/13 01:49:11;;;;;;;22.90;11.20;;;;;;;-0.68;64.74;101301.79;108048;1256;61805;-73
2023/01/13 01:51:50;;;;;;;25.00;12.20;;;;;;;-0.64;64.58;101298.40;108036;1255;60501;-74
2023/01/13 01:54:21;;;;;;;26.30;12.80;;;;;;;-0.58;64.75;101301.05;108058;1256;74549;-75
2023/01/13 01:56:48;;;;;;;29.00;13.30;;;;;;;-0.52;64.75;101301.71;107998;1257;71722;-76
2023/01/13 01:59:15;;;;;;;21.10;11.90;;;;;;;-0.47;64.77;101303.87;108038;1260;71338;-74
2023/01/13 02:01:42;;;;;;;27.20;12.20;;;;;;;-0.41;64.63;101300.45;107978;1256;61660;-76
2023/01/13 02:04:19;;;;;;;27.70;13.40;;;;;;;-0.37;64.66;101301.58;107813;1256;60322;-75
2023/01/13 02:06:46;;;;;;;27.20;12.70;;;;;;;-0.35;64.57;101300.70;107812;1256;75784;-74
2023/01/13 02:09:13;;;;;;;25.90;12.90;;;;;;;-0.35;64.35;101300.63;107978;1261;72964;-74
2023/01/13 02:14:27;;;;;;;24.80;12.50;;;;;;;-0.36;64.26;101299.92;107916;1255;63434;-75
2023/01/13 02:17:08;;;;;;;21.80;11.00;;;;;;;-0.87;65.00;101297.44;107914;1257;60177;-75
2023/01/13 02:19:38;;;;;;;22.30;10.70;;;;;;;-0.56;64.97;101291.08;108075;1256;72993;-75
2023/01/13 02:22:17;;;;;;;21.00;10.90;;;;;;;-0.42;64.57;101288.31;108070;1258;73162;-73
2023/01/13 02:25:18;;;;;;;26.60;11.70;;;;;;;-0.39;64.35;101291.10;108034;1257;72492;-76
2023/01/13 02:27:53;;;;;;;23.30;10.50;;;;;;;-0.37;64.21;101297.81;108118;1258;62332;-75
2023/01/13 02:34:00;;;;;;;23.40;11.90;;;;;;;-0.50;64.28;101290.81;108084;1257;73827;-74
2023/01/13 02:36:40;;;;;;;22.80;11.60;;;;;;;-0.51;64.34;101286.20;108031;1257;74728;-74
2023/01/13 02:39:22;;;;;;;22.00;11.50;;;;;;;-0.47;64.41;101289.17;108064;1259;70877;-73
2023/01/13 02:44:56;;;;;;;19.00;10.20;;;;;;;-0.46;64.38;101297.90;107988;1257;60551;-74
2023/01/13 02:47:24;;;;;;;20.90;11.50;;;;;;;-0.47;64.37;101290.41;108040;1257;74081;-78
2023/01/13 02:49:57;;;;;;;21.60;12.30;;;;;;;-0.50;64.50;101291.06;108004;1257;75096;-77
2023/01/13 02:52:48;;;;;;;25.20;11.80;;;;;;;-0.46;64.40;101292.42;107993;1258;72088;-75
2023/01/13 02:55:21;;;;;;;31.30;14.90;;;;;;;-0.38;64.57;101294.20;108016;1257;63312;-76
2023/01/13 02:57:48;;;;;;;25.20;11.80;;;;;;;-0.34;64.64;101290.59;108040;1259;61078;-75
2023/01/13 03:00:16;;;;;;;22.40;12.20;;;;;;;-0.34;64.60;101292.53;108055;1257;76243;-75
2023/01/13 03:02:43;;;;;;;27.40;14.10;;;;;;;-0.38;64.37;101289.82;107988;1256;73289;-76
2023/01/13 03:05:13;;;;;;;26.30;13.70;;;;;;;-0.34;64.57;101290.98;108043;1259;74754;-75
2023/01/13 03:07:56;;;;;;;23.20;12.10;;;;;;;-0.30;64.44;101287.66;107971;1256;60279;-74
2023/01/13 03:10:45;;;;;;;26.30;14.00;;;;;;;-0.33;64.40;101283.52;108058;1257;60293;-76
2023/01/13 03:13:52;;;;;;;26.30;14.20;;;;;;;-0.33;64.28;101281.38;107980;1256;75923;-74
2023/01/13 03:16:32;;;;;;;22.20;12.70;;;;;;;-0.31;64.37;101280.68;107932;1260;73762;-75
2023/01/13 03:19:25;;;;;;;28.80;14.20;;;;;;;-0.30;64.42;101279.16;107924;1258;71572;-75
2023/01/13 03:21:58;;;;;;;29.20;14.50;;;;;;;-0.31;64.50;101279.89;107959;1256;60417;-75
2023/01/13 03:24:41;;;;;;;26.20;14.20;;;;;;;-0.26;64.39;101283.92;108024;1256;61033;-75
2023/01/13 03:27:29;;;;;;;26.20;13.20;;;;;;;-0.24;64.36;101278.27;107939;1256;75670;-74
2023/01/13 03:30:18;;;;;;;26.80;13.80;;;;;;;-0.23;64.59;101278.56;107987;1258;73968;-74
2023/01/13 03:32:48;;;;;;;23.10;13.70;;;;;;;-0.26;64.13;101273.48;107959;1257;72787;-75
2023/01/13 03:35:22;;;;;;;26.00;12.90;;;;;;;-0.29;64.46;101273.92;107994;1258;59386;-76
2023/01/13 03:37:52;;;;;;;28.40;14.50;;;;;;;-0.30;64.20;101272.34;108020;1258;60319;-75
2023/01/13 03:40:23;;;;;;;27.50;13.90;;;;;;;-0.31;64.40;101269.95;107981;1257;73809;-75
2023/01/13 03:45:39;;;;;;;25.70;14.70;;;;;;;-0.26;64.46;101276.99;107986;1256;72930;-75
2023/01/13 03:48:08;;;;;;;24.40;12.80;;;;;;;-0.24;64.50;101280.08;107803;1257;60592;-74
2023/01/13 03:50:38;;;;;;;24.50;13.50;;;;;;;-0.21;64.46;101283.48;107821;1256;60945;-75
2023/01/13 03:53:17;;;;;;;24.50;14.20;;;;;;;-0.19;64.51;101288.59;108025;1256;76076;-75
2023/01/13 03:55:46;;;;;;;25.30;13.80;;;;;;;-0.24;64.42;101284.92;107960;1256;74483;-75
2023/01/13 03:58:18;;;;;;;27.10;15.20;;;;;;;-0.23;64.46;101282.40;108025;1257;72664;-75
2023/01/13 04:00:55;;;;;;;32.20;14.10;;;;;;;-0.22;64.36;101282.66;107922;1258;60961;-75
2023/01/13 10:07:17;;;;;;;22.10;15.30;;;;;;;0.87;71.18;101267.02;105870;1282;612353;-77
2023/01/13 10:09:48;;;;;;;21.50;14.70;;;;;;;1.74;67.94;101264.69;107229;1267;130340;-75
2023/01/13 10:15:05;;;;;;;25.90;13.70;;;;;;;1.89;66.35;101250.09;107344;1266;72344;-74
2023/01/13 10:17:39;;;;;;;22.90;13.90;;;;;;;1.97;65.68;101245.98;107350;1266;74690;-75
2023/01/13 10:20:21;;;;;;;23.20;14.10;;;;;;;2.05;65.34;101243.16;107437;1266;73273;-75
2023/01/13 10:22:51;;;;;;;;;;;;;;;2.09;64.61;101243.66;107435;1266;59733;-75
2023/01/13 10:25:34;;;;;;;24.30;14.40;;;;;;;2.11;64.10;101241.33;107397;1266;59651;-75
2023/01/13 10:28:08;;;;;;;18.60;11.80;;;;;;;2.18;63.74;101239.33;107358;1266;72397;-75
2023/01/13 10:30:45;;;;;;;19.90;13.40;;;;;;;2.20;63.07;101236.73;107441;1265;73655;-76
2023/01/13 10:33:17;;;;;;;18.60;12.60;;;;;;;2.21;62.82;101237.71;107458;1266;74587;-74
2023/01/13 10:36:01;;;;;;;16.00;10.30;;;;;;;2.28;62.69;101232.95;107388;1266;59536;-75
2023/01/13 10:38:34;;;;;;;19.50;11.90;;;;;;;2.33;62.09;101231.21;107424;1266;61121;-76
2023/01/13 10:41:16;;;;;;;23.20;14.30;;;;;;;2.41;61.54;101232.10;107381;1266;71595;-74
2023/01/13 10:43:44;;;;;;;19.60;13.00;;;;;;;2.38;61.32;101231.38;107402;1266;72812;-75
2023/01/13 10:46:14;;;;;;;23.70;14.40;;;;;;;2.45;61.08;101228.75;107386;1267;72914;-75
2023/01/13 10:48:43;;;;;;;21.70;13.20;;;;;;;2.54;60.97;101227.86;107409;1266;61975;-74
2023/01/13 10:51:26;;;;;;;21.70;14.10;;;;;;;2.62;60.79;101229.05;107394;1266;60285;-75
2023/01/13 10:53:58;;;;;;;20.70;12.90;;;;;;;2.72;60.57;101227.10;107408;1265;72755;-75
2023/01/13 10:56:30;;;;;;;21.30;13.10;;;;;;;2.80;60.23;101224.13;107383;1266;71844;-76
2023/01/13 10:59:23;;;;;;;21.00;13.90;;;;;;;2.84;59.79;101226.70;107282;1266;74948;-75
2023/01/13 11:02:02;;;;;;;23.30;13.80;;;;;;;2.84;59.42;101226.52;107301;1266;62529;-75
2023/01/13 11:04:52;;;;;;;18.80;12.80;;;;;;;2.84;59.37;101222.63;107255;1267;62182;-74
2023/01/13 11:07:39;;;;;;;18.50;12.90;;;;;;;2.81;59.03;101218.73;107680;1257;73868;-74
2023/01/13 11:10:26;;;;;;;19.10;12.30;;;;;;;2.71;58.61;101219.10;107873;1263;72926;-75
2023/01/13 11:13:08;;;;;;;19.10;11.60;;;;;;;2.66;58.52;101219.79;107876;1260;73304;-75
2023/01/13 11:15:56;;;;;;;21.60;13.10;;;;;;;2.61;58.51;101220.14;107802;1260;61113;-74
2023/01/13 11:18:25;;;;;;;21.40;12.80;;;;;;;2.59;58.57;101219.19;107875;1257;59408;-75
2023/01/13 11:20:52;;;;;;;19.60;12.10;;;;;;;2.59;58.56;101219.48;107841;1257;73820;-75
2023/01/13 11:23:34;;;;;;;20.40;12.60;;;;;;;2.65;58.50;101220.71;107723;1257;72971;-74
2023/01/13 11:26:05;;;;;;;17.10;12.40;;;;;;;2.67;58.28;101215.61;107846;1257;73674;-76
2023/01/13 11:29:11;;;;;;;14.30;8.80;;;;;;;2.64;58.19;101217.18;107880;1257;59477;-75
2023/01/13 11:31:45;;;;;;;17.60;11.40;;;;;;;2.63;58.21;101220.41;107770;1257;61945;-73
2023/01/13 11:34:29;;;;;;;16.30;11.00;;;;;;;2.61;58.14;101220.75;107874;1257;75271;-74
2023/01/13 11:36:58;;;;;;;19.40;12.30;;;;;;;2.56;57.90;101218.32;107823;1257;73687;-74
2023/01/13 11:39:29;;;;;;;22.50;12.50;;;;;;;2.51;58.05;101213.07;107864;1257;73106;-76
2023/01/13 11:42:20;;;;;;;17.50;11.70;;;;;;;2.48;58.24;101210.48;107876;1257;61183;-75
2023/01/13 11:44:57;;;;;;;18.50;11.40;;;;;;;2.42;57.89;101209.80;107885;1257;60989;-74
2023/01/13 11:47:24;;;;;;;16.10;11.10;;;;;;;2.38;58.25;101211.92;107701;1257;71915;-75
2023/01/13 11:49:51;;;;;;;18.80;12.40;;;;;;;2.40;58.13;101210.20;107710;1257;73404;-74
2023/01/13 11:52:49;;;;;;;18.10;12.60;;;;;;;2.41;58.16;101208.34;107783;1259;70729;-73
2023/01/13 11:55:32;;;;;;;17.40;12.30;;;;;;;2.39;58.17;101205.55;107744;1257;62339;-75
2023/01/13 11:58:12;;;;;;;20.20;12.80;;;;;;;2.35;58.10;101203.13;107817;1260;62379;-75
2023/01/13 12:01:12;;;;;;;21.30;13.70;;;;;;;2.31;58.19;101206.70;107873;1257;71866;-77
2023/01/13 16:06:36;;;;;;;20.40;12.40;;;;;;;0.15;72.93;101222.23;105701;1285;613314;-64
2023/01/13 16:09:04;;;;;;;19.60;13.30;;;;;;;0.93;69.71;101218.05;107227;1265;127604;-64
2023/01/13 16:11:31;;;;;;;24.20;14.10;;;;;;;0.90;69.24;101223.08;107418;1265;62383;-64
2023/01/13 16:13:58;;;;;;;19.60;12.70;;;;;;;0.95;68.98;101227.45;107378;1266;73275;-64
2023/01/13 16:16:26;;;;;;;21.40;14.00;;;;;;;0.96;68.31;101219.61;107408;1265;72719;-64
2023/01/13 16:18:53;;;;;;;23.00;14.40;;;;;;;0.98;67.98;101222.42;107445;1265;71414;-64
2023/01/13 16:21:23;;;;;;;24.90;14.50;;;;;;;1.00;68.00;101219.14;107432;1266;60852;-63
2023/01/13 16:23:50;;;;;;;26.30;14.50;;;;;;;1.04;67.76;101218.55;107439;1265;59356;-62
2023/01/13 16:26:22;;;;;;;23.60;13.80;;;;;;;1.07;67.41;101217.08;107394;1266;72426;-63
2023/01/13 16:28:50;;;;;;;;;;;;;;;1.08;67.31;101215.91;107412;1265;73774;-64
2023/01/13 16:31:20;;;;;;;22.30;14.00;;;;;;;1.10;66.95;101214.77;107456;1265;72823;-64
2023/01/13 16:33:48;;;;;;;22.40;13.30;;;;;;;1.11;66.79;101209.43;107425;1265;59647;-64
2023/01/13 16:36:16;;;;;;;25.40;15.60;;;;;;;1.07;66.59;101211.33;107422;1265;60535;-65
2023/01/13 16:38:43;;;;;;;23.30;14.30;;;;;;;1.07;66.52;101212.25;107446;1267;74117;-63
2023/01/13 16:41:10;;;;;;;24.90;15.10;;;;;;;1.06;66.32;101212.27;107352;1269;74005;-64
2023/01/13 16:43:37;;;;;;;22.00;14.80;;;;;;;1.03;66.11;101213.16;107231;1271;72051;-63
2023/01/13 16:46:16;;;;;;;25.20;14.00;;;;;;;0.98;66.04;101212.59;107402;1266;61261;-63
2023/01/13 16:48:44;;;;;;;24.60;14.20;;;;;;;0.90;66.10;101218.56;107445;1265;59614;-64
2023/01/13 16:51:10;;;;;;;25.20;14.20;;;;;;;0.87;66.04;101214.16;107408;1266;72169;-64
2023/01/13 16:53:37;;;;;;;26.90;14.90;;;;;;;0.85;66.12;101211.57;107424;1267;72849;-64
2023/01/13 16:56:25;;;;;;;24.40;15.20;;;;;;;0.84;65.96;101208.39;107346;1267;73743;-65
2023/01/13 16:58:53;;;;;;;28.20;16.10;;;;;;;0.80;65.96;101211.88;107394;1266;59637;-64
2023/01/13 17:01:26;;;;;;;30.10;17.20;;;;;;;0.75;66.10;101207.67;107403;1266;60461;-64
2023/01/13 17:03:54;;;;;;;26.70;16.40;;;;;;;0.70;66.15;101206.95;107381;1266;72769;-64
2023/01/13 17:06:32;;;;;;;26.80;16.10;;;;;;;0.69;65.97;101211.30;107364;1266;71914;-64
2023/01/13 17:09:04;;;;;;;29.90;17.30;;;;;;;0.70;66.31;101212.21;107367;1267;72628;-64
2023/01/13 17:11:31;;;;;;;30.30;18.60;;;;;;;0.73;66.21;101215.11;107378;1266;59519;-65
2023/01/13 17:13:58;;;;;;;26.40;15.00;;;;;;;0.69;66.04;101217.24;107335;1266;61370;-64
2023/01/13 17:16:25;;;;;;;30.40;17.70;;;;;;;0.68;66.09;101218.20;107557;1263;72966;-64
2023/01/13 17:18:52;;;;;;;29.90;16.70;;;;;;;0.70;66.12;101216.79;107592;1263;72585;-63
2023/01/13 17:21:19;;;;;;;28.90;16.10;;;;;;;0.72;66.04;101219.77;107533;1263;72683;-63
2023/01/13 17:23:46;;;;;;;31.10;17.30;;;;;;;0.71;66.03;101223.35;107539;1263;61255;-64
2023/01/13 17:26:30;;;;;;;30.30;17.10;;;;;;;0.76;66.29;101221.77;107524;1263;60449;-63
2023/01/13 17:28:59;;;;;;;28.70;17.10;;;;;;;0.83;66.11;101218.65;107489;1263;72174;-63
2023/01/13 17:31:26;;;;;;;29.70;17.70;;;;;;;0.89;66.15;101210.98;107547;1263;70812;-64
2023/01/13 17:33:53;;;;;;;30.70;16.80;;;;;;;0.95;66.13;101215.83;107536;1263;71913;-64
2023/01/13 17:36:21;;;;;;;29.20;17.30;;;;;;;0.99;65.83;101218.02;107477;1263;61296;-64
2023/01/13 17:38:51;;;;;;;29.30;17.10;;;;;;;1.02;65.92;101221.95;107513;1263;59630;-64
2023/01/13 17:41:18;;;;;;;27.00;17.10;;;;;;;1.03;65.73;101221.91;107515;1263;71408;-65
2023/01/13 17:43:45;;;;;;;30.90;16.60;;;;;;;1.02;65.74;101226.82;107590;1263;74151;-64
2023/01/13 17:46:18;;;;;;;30.90;16.90;;;;;;;1.05;65.84;101229.65;107769;1260;72963;-64
2023/01/13 17:48:45;;;;;;;28.00;16.10;;;;;;;1.07;65.64;101227.55;107768;1260;62228;-64
2023/01/13 17:51:13;;;;;;;26.30;16.80;;;;;;;1.10;65.60;101226.23;107821;1259;59231;-64
2023/01/13 17:53:44;;;;;;;22.10;14.20;;;;;;;1.12;65.41;101217.69;107756;1259;72387;-63
2023/01/13 17:56:12;;;;;;;27.60;15.90;;;;;;;1.11;65.36;101217.10;107651;1260;72824;-64
2023/01/13 17:58:44;;;;;;;26.40;16.50;;;;;;;1.12;65.30;101213.89;107677;1260;72069;-64
2023/01/13 18:01:15;;;;;;;25.60;16.10;;;;;;;1.15;65.17;101210.39;107736;1259;61423;-64
2023/01/13 18:03:42;;;;;;;26.10;15.40;;;;;;;1.16;64.90;101208.11;107733;1260;59688;-64
2023/01/13 18:06:17;;;;;;;26.10;16.90;;;;;;;1.15;64.84;101206.35;107717;1260;72156;-64
2023/01/13 18:08:44;;;;;;;26.00;15.70;;;;;;;1.13;64.99;101196.52;107795;1260;72625;-65
2023/01/13 18:11:12;;;;;;;30.20;17.10;;;;;;;1.14;64.63;101196.09;107730;1260;73674;-64
2023/01/13 18:13:42;;;;;;;28.30;16.80;;;;;;;1.17;64.86;101193.34;107721;1260;59800;-65
2023/01/13 18:16:12;;;;;;;26.00;15.60;;;;;;;1.20;64.62;101190.48;107759;1259;59490;-64
2023/01/13 18:18:40;;;;;;;26.50;16.40;;;;;;;1.21;64.32;101197.97;107732;1260;72492;-64
2023/01/13 18:29:42;;;;;;;24.70;14.90;;;;;;;1.16;64.31;101188.80;107835;1260;59522;-64
2023/01/13 18:32:13;;;;;;;27.30;15.70;;;;;;;1.18;64.08;101192.30;107855;1259;73543;-64
2023/01/13 18:34:40;;;;;;;21.10;14.50;;;;;;;1.19;64.04;101191.84;107880;1259;72211;-64
2023/01/13 18:37:09;;;;;;;23.10;14.80;;;;;;;1.21;64.02;101189.76;107883;1259;73734;-64
2023/01/13 18:39:38;;;;;;;22.50;15.10;;;;;;;1.19;63.90;101183.13;107853;1258;59906;-65
2023/01/13 18:44:54;;;;;;;22.30;14.80;;;;;;;1.12;63.64;101188.73;107840;1259;73292;-65
2023/01/13 18:47:25;;;;;;;24.30;15.60;;;;;;;1.08;63.62;101188.21;107831;1259;73045;-64
2023/01/13 18:49:52;;;;;;;23.40;15.50;;;;;;;1.06;63.54;101184.60;107874;1258;72431;-65
2023/01/13 18:52:19;;;;;;;22.70;13.80;;;;;;;1.06;63.60;101183.88;107944;1259;59559;-63
2023/01/13 18:54:46;;;;;;;21.30;13.80;;;;;;;1.05;63.47;101186.56;107855;1259;59539;-64
2023/01/13 18:57:14;;;;;;;25.00;15.80;;;;;;;1.06;63.30;101188.67;107922;1260;73214;-65
2023/01/13 18:59:41;;;;;;;23.90;14.70;;;;;;;1.06;63.35;101191.23;107875;1259;72188;-65
2023/01/13 19:02:18;;;;;;;25.90;15.60;;;;;;;1.07;63.18;101198.69;107820;1258;72751;-65
2023/01/13 19:04:46;;;;;;;24.40;15.70;;;;;;;1.07;63.15;101200.15;107712;1260;62440;-64
2023/01/13 19:07:21;;;;;;;23.20;15.00;;;;;;;1.09;63.23;101203.21;107770;1259;61454;-67
2023/01/13 19:09:51;;;;;;;24.40;14.90;;;;;;;1.10;63.11;101201.45;107784;1259;71201;-65
2023/01/13 19:12:25;;;;;;;24.60;15.50;;;;;;;1.10;63.01;101198.38;107783;1260;73498;-64
2023/01/13 19:14:53;;;;;;;26.00;16.40;;;;;;;1.04;62.83;101199.30;107745;1260;70658;-65
2023/01/13 19:17:24;;;;;;;26.20;16.20;;;;;;;1.04;63.14;101197.46;107769;1260;61524;-64
2023/01/13 19:19:52;;;;;;;27.30;16.50;;;;;;;1.04;62.81;101196.05;107796;1259;59440;-65
2023/01/13 19:22:30;;;;;;;22.80;15.30;;;;;;;1.05;62.95;101195.34;107760;1260;74012;-65
2023/01/13 19:24:57;;;;;;;23.70;15.40;;;;;;;1.08;63.08;101191.39;107772;1260;71698;-64
2023/01/13 19:27:24;;;;;;;28.60;16.50;;;;;;;1.12;62.87;101193.18;107806;1260;70432;-65
2023/01/13 19:29:52;;;;;;;24.00;15.30;;;;;;;1.13;62.85;101190.95;107776;1260;59892;-65
2023/01/13 19:32:20;;;;;;;25.50;16.30;;;;;;;1.20;62.68;101191.81;107779;1260;61080;-64
2023/01/13 19:34:49;;;;;;;24.10;16.30;;;;;;;1.23;62.54;101188.90;107777;1260;73654;-65
2023/01/13 19:37:16;;;;;;;22.80;16.20;;;;;;;1.25;62.26;101189.08;107855;1260;72502;-64
2023/01/13 19:39:43;;;;;;;27.00;17.00;;;;;;;1.27;62.28;101190.00;107700;1260;72996;-65
2023/01/13 19:47:44;;;;;;;24.60;16.00;;;;;;;1.33;61.98;101195.80;107902;1258;72941;-64
2023/01/13 19:50:12;;;;;;;25.70;15.90;;;;;;;1.33;61.94;101194.52;107817;1259;72918;-65
2023/01/13 19:52:40;;;;;;;25.10;17.20;;;;;;;1.32;61.89;101197.05;107792;1260;72694;-65
